TimeHST,TemperatureF,Dew PointF,Humidity,Sea Level PressureIn,VisibilityMPH,Wind Direction,Wind SpeedMPH,Gust SpeedMPH,PrecipitationIn,Events,Conditions,WindDirDegrees,DateUTC
12:54 AM,73.9,70.0,87,30.08,10.0,NE,11.5,19.6,N/A,,Clear,40,2013-08-26 10:54:00
1:54 AM,73.9,70.0,87,30.06,10.0,NE,16.1,25.3,N/A,,Clear,40,2013-08-26 11:54:00
2:54 AM,73.9,69.1,85,30.06,10.0,NE,11.5,21.9,N/A,,Clear,50,2013-08-26 12:54:00
3:54 AM,73.9,70.0,87,30.06,10.0,NE,12.7,27.6,N/A,,Clear,50,2013-08-26 13:54:00
4:54 AM,73.9,70.0,87,30.07,10.0,NE,16.1,27.6,N/A,,Clear,40,2013-08-26 14:54:00
5:54 AM,73.9,70.0,87,30.08,10.0,NE,12.7,21.9,N/A,,Clear,40,2013-08-26 15:54:00
6:54 AM,75.0,70.0,84,30.10,10.0,NE,15.0,24.2,N/A,,Partly Cloudy,40,2013-08-26 16:54:00
7:54 AM,77.0,68.0,74,30.11,10.0,NE,16.1,24.2,N/A,,Partly Cloudy,50,2013-08-26 17:54:00
8:54 AM,80.1,70.0,71,30.11,10.0,NE,13.8,27.6,N/A,,Partly Cloudy,40,2013-08-26 18:54:00
9:54 AM,81.0,68.0,65,30.11,10.0,NE,17.3,27.6,N/A,,Scattered Clouds,50,2013-08-26 19:54:00
10:54 AM,82.9,70.0,65,30.10,10.0,NNE,13.8,26.5,N/A,,Scattered Clouds,30,2013-08-26 20:54:00
11:54 AM,82.9,69.1,63,30.08,10.0,NE,18.4,29.9,N/A,,Scattered Clouds,50,2013-08-26 21:54:00
12:54 PM,86.0,70.0,59,30.07,10.0,NNE,15.0,27.6,N/A,,Partly Cloudy,30,2013-08-26 22:54:00
1:54 PM,82.9,69.1,63,30.06,10.0,NE,17.3,29.9,N/A,,Partly Cloudy,50,2013-08-26 23:54:00
2:54 PM,84.0,69.1,61,30.04,10.0,NE,18.4,28.8,N/A,,Clear,50,2013-08-27 00:54:00
3:54 PM,82.0,69.1,65,30.05,10.0,NE,21.9,31.1,N/A,,Partly Cloudy,50,2013-08-27 01:54:00
4:54 PM,81.0,70.0,69,30.05,10.0,NE,15.0,31.1,N/A,,Partly Cloudy,50,2013-08-27 02:54:00
5:54 PM,78.1,69.1,74,30.05,10.0,NE,12.7,27.6,N/A,,Partly Cloudy,40,2013-08-27 03:54:00
6:54 PM,75.9,68.0,76,30.07,10.0,NE,13.8,29.9,N/A,,Clear,40,2013-08-27 04:54:00
7:54 PM,75.0,70.0,84,30.09,10.0,NE,15.0,24.2,N/A,,Clear,40,2013-08-27 05:54:00
8:54 PM,75.0,69.1,82,30.11,10.0,ENE,11.5,19.6,N/A,,Clear,60,2013-08-27 06:54:00
9:54 PM,75.0,66.9,76,30.12,10.0,NE,10.4,23.0,N/A,,Clear,50,2013-08-27 07:54:00
10:54 PM,73.9,69.1,85,30.12,10.0,NE,11.5,21.9,N/A,,Clear,50,2013-08-27 08:54:00
11:54 PM,73.9,69.1,85,30.12,10.0,NNE,11.5,24.2,N/A,,Clear,30,2013-08-27 09:54:00